Time;durP1;ratioP1;P1;durP2;ratioP2;P2;SDS_P1;SDS_P2;PMS_P1;PMS_P2;Temp;Humidity;BMP_temperature;BMP_pressure;BME280_temperature;BME280_humidity;BME280_pressure;Samples;Min_cycle;Max_cycle;Signal;HPM_P1;HPM_P2
2024/01/10 00:03:15;;;;;;;2.70;2.05;;;10.70;99.90;;;;;;10567121;27;20842;-65
2024/01/10 00:08:17;;;;;;;4.45;2.20;;;10.60;99.90;;;;;;10564316;27;20043;-64
2024/01/10 00:13:21;;;;;;;3.70;2.00;;;10.60;99.90;;;;;;10564900;27;20488;-68
2024/01/10 00:18:23;;;;;;;3.08;2.28;;;10.60;99.90;;;;;;10560781;28;20097;-65
2024/01/10 00:23:25;;;;;;;8.93;1.97;;;10.50;99.90;;;;;;10556480;28;20055;-65
2024/01/10 00:28:28;;;;;;;3.60;1.33;;;10.60;99.90;;;;;;10566102;27;20496;-66
2024/01/10 00:33:30;;;;;;;3.10;2.00;;;10.60;99.90;;;;;;10565195;27;20728;-64
2024/01/10 00:38:32;;;;;;;3.90;2.38;;;10.50;99.90;;;;;;10577196;27;20050;-65
2024/01/10 00:43:36;;;;;;;3.00;1.88;;;10.40;99.90;;;;;;10579167;27;20073;-65
2024/01/10 00:48:38;;;;;;;5.75;2.78;;;10.40;99.90;;;;;;10579964;27;20047;-64
2024/01/10 00:53:42;;;;;;;5.10;1.90;;;10.50;99.90;;;;;;10583444;27;20100;-65
2024/01/10 00:58:45;;;;;;;4.30;2.25;;;10.40;99.90;;;;;;10572266;27;20050;-64
2024/01/10 01:03:47;;;;;;;5.30;2.08;;;10.40;99.90;;;;;;10573553;27;20051;-65
2024/01/10 01:08:49;;;;;;;3.83;2.28;;;10.40;99.90;;;;;;10580572;27;20064;-66
2024/01/10 01:13:52;;;;;;;4.25;2.03;;;10.50;99.90;;;;;;10583196;27;20107;-65
2024/01/10 01:18:54;;;;;;;3.45;1.65;;;10.40;99.90;;;;;;10585126;27;20051;-69
2024/01/10 01:23:56;;;;;;;3.35;2.25;;;10.40;99.90;;;;;;10576778;27;20056;-63
2024/01/10 01:29:00;;;;;;;4.57;2.10;;;10.30;99.90;;;;;;10584645;27;20547;-64
2024/01/10 01:34:02;;;;;;;4.13;2.40;;;10.40;99.90;;;;;;10586149;27;20055;-65
2024/01/10 01:39:04;;;;;;;3.40;1.90;;;10.40;99.90;;;;;;10568874;27;20035;-64
2024/01/10 01:44:08;;;;;;;6.20;2.50;;;10.30;99.90;;;;;;10571513;27;20050;-66
2024/01/10 01:49:11;;;;;;;2.53;1.77;;;10.30;99.90;;;;;;10576283;27;20493;-66
2024/01/10 01:54:14;;;;;;;3.33;2.25;;;10.20;99.90;;;;;;10569237;27;20059;-66
2024/01/10 01:59:17;;;;;;;4.97;1.80;;;10.30;99.90;;;;;;10566574;27;20056;-65
2024/01/10 02:04:20;;;;;;;4.30;2.50;;;10.30;99.90;;;;;;10569140;27;20051;-65
2024/01/10 02:09:23;;;;;;;3.60;2.20;;;10.30;99.90;;;;;;10569039;27;20039;-65
2024/01/10 02:14:27;;;;;;;3.85;2.05;;;10.20;99.90;;;;;;10576040;27;20137;-66
2024/01/10 02:19:31;;;;;;;3.88;1.80;;;10.20;99.90;;;;;;10563340;27;20051;-65
2024/01/10 02:24:33;;;;;;;4.78;2.33;;;10.20;99.90;;;;;;10576135;27;20056;-64
2024/01/10 02:29:36;;;;;;;4.93;2.40;;;10.10;99.90;;;;;;10568361;27;20936;-64
2024/01/10 02:34:38;;;;;;;3.15;2.10;;;10.10;99.90;;;;;;10572108;27;20413;-65
2024/01/10 02:39:40;;;;;;;3.30;2.28;;;10.10;99.90;;;;;;10576622;27;20059;-64
2024/01/10 02:44:45;;;;;;;3.10;1.88;;;10.10;99.90;;;;;;10570726;27;20060;-63
2024/01/10 02:49:47;;;;;;;4.55;2.20;;;10.00;99.90;;;;;;10581174;27;20135;-65
2024/01/10 02:54:49;;;;;;;4.80;2.13;;;9.90;99.90;;;;;;10569577;27;20051;-66
2024/01/10 02:59:52;;;;;;;2.58;1.70;;;10.00;99.90;;;;;;10569567;27;20124;-65
2024/01/10 03:04:54;;;;;;;4.85;2.90;;;9.90;99.90;;;;;;10575614;27;20823;-65
2024/01/10 03:09:56;;;;;;;3.10;2.53;;;9.90;99.90;;;;;;10573130;27;20054;-66
2024/01/10 03:14:59;;;;;;;3.95;2.50;;;10.00;99.90;;;;;;10576643;27;20470;-65
2024/01/10 03:20:02;;;;;;;3.50;2.33;;;10.00;99.90;;;;;;10568554;27;20072;-65
2024/01/10 03:25:05;;;;;;;3.17;2.00;;;10.00;99.90;;;;;;10569046;27;20055;-66
2024/01/10 03:30:10;;;;;;;3.45;2.30;;;9.90;99.90;;;;;;10569084;27;20050;-65
2024/01/10 03:35:12;;;;;;;5.93;2.63;;;10.00;99.90;;;;;;10573766;27;20043;-65
2024/01/10 03:40:14;;;;;;;3.50;2.43;;;9.90;99.90;;;;;;10563980;27;20421;-65
2024/01/10 03:45:22;;;;;;;3.60;2.22;;;9.90;99.90;;;;;;10559332;27;20054;-65
2024/01/10 03:50:24;;;;;;;3.67;2.20;;;9.90;99.90;;;;;;10564687;27;20087;-65
2024/01/10 03:55:26;;;;;;;3.67;2.70;;;9.90;99.90;;;;;;10565563;27;20050;-66
2024/01/10 04:15:32;;;;;;;4.05;3.20;;;9.90;99.90;;;;;;10583137;27;20112;-65
2024/01/10 04:20:35;;;;;;;4.75;3.13;;;9.90;99.90;;;;;;10595218;27;20101;-65
2024/01/10 04:25:36;;;;;;;4.10;2.70;;;9.90;99.90;;;;;;10606636;27;20051;-65
2024/01/10 04:30:40;;;;;;;6.03;3.97;;;9.90;99.90;;;;;;10602803;27;20050;-65
2024/01/10 04:35:42;;;;;;;5.82;3.72;;;9.90;99.90;;;;;;10594332;27;20060;-65
2024/01/10 04:40:44;;;;;;;4.30;2.90;;;10.00;99.90;;;;;;10598742;27;20069;-66
2024/01/10 04:45:47;;;;;;;4.72;2.38;;;10.10;99.90;;;;;;10599236;27;20051;-64
2024/01/10 04:50:50;;;;;;;3.97;2.70;;;10.00;99.90;;;;;;10590319;27;20059;-64
2024/01/10 04:55:52;;;;;;;3.33;2.50;;;10.00;99.90;;;;;;10600541;27;20044;-66
2024/01/10 05:00:55;;;;;;;4.15;3.28;;;10.00;99.90;;;;;;10594631;27;20054;-66
2024/01/10 05:05:57;;;;;;;4.65;2.55;;;10.00;99.90;;;;;;10593909;27;20055;-65
2024/01/10 05:10:59;;;;;;;3.40;2.55;;;10.10;99.90;;;;;;10589629;27;20047;-65
2024/01/10 05:16:03;;;;;;;3.25;2.35;;;10.00;99.90;;;;;;10595126;27;20498;-65
2024/01/10 05:21:05;;;;;;;5.05;3.25;;;10.00;99.90;;;;;;10590500;27;20908;-65
2024/01/10 05:26:07;;;;;;;4.60;2.90;;;10.00;99.90;;;;;;10571095;27;20059;-65
2024/01/10 05:31:11;;;;;;;2.95;2.40;;;10.10;99.90;;;;;;10559572;27;21353;-66
2024/01/10 05:36:13;;;;;;;4.20;2.88;;;10.00;99.90;;;;;;10560865;27;20056;-64
2024/01/10 05:41:15;;;;;;;3.77;2.40;;;9.90;99.90;;;;;;10560498;27;20054;-67
2024/01/10 05:46:19;;;;;;;4.70;2.58;;;9.90;99.90;;;;;;10561498;27;20481;-66
2024/01/10 05:51:21;;;;;;;3.92;2.05;;;9.90;99.90;;;;;;10567095;27;20056;-65
2024/01/10 05:56:24;;;;;;;4.07;1.90;;;9.90;99.90;;;;;;10565964;27;20175;-65
2024/01/10 06:01:27;;;;;;;2.83;2.33;;;10.00;99.90;;;;;;10563629;27;20306;-66
2024/01/10 06:06:29;;;;;;;3.63;2.47;;;10.10;99.90;;;;;;10560764;27;20364;-67
2024/01/10 06:11:31;;;;;;;2.90;2.28;;;10.10;99.90;;;;;;10565009;27;20121;-67
2024/01/10 06:16:35;;;;;;;8.88;3.92;;;10.10;99.90;;;;;;10566160;27;20144;-66
2024/01/10 06:21:37;;;;;;;3.25;2.53;;;10.10;99.90;;;;;;10564015;27;20047;-65
2024/01/10 06:26:39;;;;;;;6.00;3.67;;;10.10;99.90;;;;;;10548431;27;20616;-65
2024/01/10 06:31:42;;;;;;;6.77;3.23;;;10.10;99.90;;;;;;10565759;27;21437;-65
2024/01/10 06:36:44;;;;;;;3.03;2.20;;;10.20;99.90;;;;;;10557146;27;20055;-65
2024/01/10 06:41:47;;;;;;;4.07;2.90;;;10.00;99.90;;;;;;10564432;27;20058;-65
2024/01/10 06:46:50;;;;;;;6.05;4.00;;;10.10;99.90;;;;;;10568714;27;20050;-65
2024/01/10 06:51:52;;;;;;;4.72;2.92;;;10.00;99.90;;;;;;10570227;27;20039;-64
2024/01/10 06:56:54;;;;;;;4.05;2.45;;;10.10;99.90;;;;;;10558669;27;20959;-65
2024/01/10 07:01:59;;;;;;;7.05;3.95;;;10.10;99.90;;;;;;10563638;27;21364;-64
2024/01/10 07:07:02;;;;;;;4.55;2.30;;;10.20;99.90;;;;;;10555209;27;20586;-66
2024/01/10 07:12:04;;;;;;;;;;;10.20;99.90;;;;;;10562471;27;20078;-65
2024/01/10 07:17:09;;;;;;;5.30;3.13;;;10.20;99.90;;;;;;10555038;27;19920;-64
2024/01/10 07:22:11;;;;;;;5.03;3.10;;;10.30;99.90;;;;;;10557410;27;20050;-64
2024/01/10 07:27:14;;;;;;;4.28;3.05;;;10.20;99.90;;;;;;10557258;27;20334;-65
2024/01/10 07:32:19;;;;;;;6.22;3.67;;;10.30;99.90;;;;;;10555424;27;20096;-65
2024/01/10 07:37:22;;;;;;;7.40;3.17;;;10.20;99.90;;;;;;10561245;27;20100;-65
2024/01/10 07:42:24;;;;;;;6.85;3.80;;;10.10;99.90;;;;;;10564884;27;20062;-65
2024/01/10 07:47:28;;;;;;;7.67;3.63;;;10.20;99.90;;;;;;10560195;27;20073;-65
2024/01/10 07:52:30;;;;;;;6.65;4.75;;;10.20;99.90;;;;;;10545951;27;20066;-66
2024/01/10 07:57:33;;;;;;;5.57;4.07;;;10.10;99.90;;;;;;10552380;27;20046;-63
2024/01/10 08:02:37;;;;;;;7.82;3.55;;;10.10;99.90;;;;;;10552736;27;20048;-63
2024/01/10 08:07:39;;;;;;;15.18;4.22;;;10.60;99.90;;;;;;10551614;27;20051;-64
2024/01/10 08:12:42;;;;;;;10.00;3.67;;;10.30;99.90;;;;;;10550883;28;20082;-64
2024/01/10 08:17:45;;;;;;;5.05;3.35;;;10.30;99.90;;;;;;10552145;28;20056;-64
2024/01/10 08:22:48;;;;;;;6.43;3.30;;;10.20;99.90;;;;;;10554084;28;20051;-65
2024/01/10 08:27:52;;;;;;;6.82;3.40;;;10.20;99.90;;;;;;10551417;28;20056;-65
2024/01/10 08:32:56;;;;;;;8.45;3.28;;;10.20;99.90;;;;;;10555310;28;20043;-65
2024/01/10 08:37:58;;;;;;;7.63;5.07;;;10.20;99.90;;;;;;10555279;28;20062;-64
2024/01/10 08:43:01;;;;;;;13.60;5.93;;;10.20;99.90;;;;;;10556827;28;20619;-63
2024/01/10 08:48:06;;;;;;;6.07;3.53;;;10.10;99.90;;;;;;10546023;28;20156;-63
2024/01/10 08:53:08;;;;;;;9.65;4.40;;;10.30;99.90;;;;;;10549235;28;20043;-64
2024/01/10 08:58:10;;;;;;;4.80;2.60;;;10.20;99.90;;;;;;10542277;27;20078;-62
2024/01/10 09:03:14;;;;;;;6.40;4.15;;;10.30;99.90;;;;;;10554891;27;20039;-64
2024/01/10 09:08:17;;;;;;;5.53;3.42;;;10.30;99.90;;;;;;10564410;27;20223;-63
2024/01/10 09:13:18;;;;;;;5.73;3.40;;;10.20;99.90;;;;;;10556745;27;20497;-65
2024/01/10 09:18:22;;;;;;;7.22;4.05;;;10.30;99.90;;;;;;10558392;27;20477;-64
2024/01/10 09:23:24;;;;;;;4.05;2.83;;;10.30;99.90;;;;;;10562047;27;20055;-64
2024/01/10 09:28:27;;;;;;;5.90;3.47;;;10.40;99.90;;;;;;10557701;27;20434;-65
2024/01/10 09:33:31;;;;;;;6.30;3.30;;;10.30;99.90;;;;;;10558165;27;20047;-65
2024/01/10 09:38:37;;;;;;;5.45;3.33;;;10.40;99.90;;;;;;10560147;27;20059;-65
2024/01/10 09:43:39;;;;;;;7.68;4.63;;;10.40;99.90;;;;;;10553952;27;20036;-66
2024/01/10 09:48:42;;;;;;;3.37;2.07;;;10.30;99.90;;;;;;10553121;27;20051;-65
2024/01/10 09:53:51;;;;;;;5.93;3.50;;;10.50;99.90;;;;;;10553889;27;20047;-64
2024/01/10 09:58:56;;;;;;;4.72;3.25;;;10.40;99.90;;;;;;10558695;27;20043;-64
2024/01/10 10:04:02;;;;;;;6.25;3.75;;;10.40;99.90;;;;;;10553960;27;20040;-63
2024/01/10 10:09:04;;;;;;;5.13;3.75;;;10.40;99.90;;;;;;10553200;27;20595;-65
2024/01/10 10:14:16;;;;;;;6.60;4.20;;;10.50;99.90;;;;;;10557387;27;20096;-64
2024/01/10 10:19:25;;;;;;;5.03;3.07;;;10.40;99.90;;;;;;10557262;27;23141;-64
2024/01/10 10:24:27;;;;;;;12.60;3.90;;;10.00;99.90;;;;;;10550581;27;20177;-63
2024/01/10 10:29:29;;;;;;;5.10;3.43;;;10.00;99.90;;;;;;10558206;27;20058;-63
2024/01/10 10:34:33;;;;;;;8.63;3.83;;;9.80;99.90;;;;;;10553373;27;20570;-63
2024/01/10 10:39:35;;;;;;;9.30;4.80;;;9.70;99.90;;;;;;10555972;27;20051;-63
2024/01/10 10:44:43;;;;;;;9.93;4.65;;;9.60;99.90;;;;;;10555533;27;20070;-64
2024/01/10 10:49:54;;;;;;;7.57;4.75;;;9.40;99.90;;;;;;10545805;27;20103;-64
2024/01/10 10:54:59;;;;;;;6.07;3.17;;;9.70;99.90;;;;;;10543944;27;20084;-63
2024/01/10 11:00:02;;;;;;;9.68;4.65;;;9.90;99.90;;;;;;10549043;27;20058;-62
2024/01/10 11:05:08;;;;;;;8.10;4.03;;;9.70;99.90;;;;;;10553505;27;20732;-64
2024/01/10 11:10:14;;;;;;;7.60;3.97;;;9.80;99.90;;;;;;10549723;27;20055;-64
2024/01/10 11:15:34;;;;;;;8.45;4.05;;;9.60;99.90;;;;;;10552053;27;20058;-63
2024/01/10 11:20:53;;;;;;;10.63;4.57;;;9.80;99.90;;;;;;10546783;27;20071;-62
2024/01/10 11:25:55;;;;;;;9.52;5.38;;;9.90;99.90;;;;;;10550070;27;20101;-64
2024/01/10 11:30:59;;;;;;;9.82;5.70;;;9.70;99.90;;;;;;10553107;27;20042;-62
2024/01/10 11:36:13;;;;;;;11.25;5.35;;;9.50;99.90;;;;;;10552024;27;20091;-63
2024/01/10 11:41:22;;;;;;;11.50;6.30;;;9.70;99.90;;;;;;10553430;27;20067;-65
2024/01/10 11:46:24;;;;;;;13.00;5.50;;;10.60;99.90;;;;;;10547434;27;20040;-65
2024/01/10 11:51:30;;;;;;;11.60;5.85;;;10.70;99.90;;;;;;10545971;27;20039;-64
2024/01/10 11:56:40;;;;;;;13.13;6.78;;;10.80;99.90;;;;;;10543301;27;20047;-63
2024/01/10 12:01:42;;;;;;;12.60;7.47;;;10.70;99.90;;;;;;10552654;27;20101;-64
2024/01/10 12:06:49;;;;;;;12.70;8.18;;;10.80;99.90;;;;;;10547162;27;20861;-65
2024/01/10 12:11:51;;;;;;;18.83;8.07;;;11.00;99.90;;;;;;10550320;27;20058;-63
2024/01/10 12:16:56;;;;;;;16.65;7.43;;;10.90;99.90;;;;;;10552010;27;20043;-63
2024/01/10 12:22:00;;;;;;;12.18;7.38;;;11.00;99.90;;;;;;10555944;28;20043;-65
2024/01/10 12:27:03;;;;;;;13.30;7.32;;;11.00;99.90;;;;;;10557866;28;20134;-64
2024/01/10 12:32:05;;;;;;;;;;;11.00;99.90;;;;;;10551878;28;20158;-65
2024/01/10 12:37:11;;;;;;;17.48;7.57;;;11.10;99.90;;;;;;10552757;27;19932;-66
2024/01/10 12:42:13;;;;;;;16.13;8.07;;;11.10;99.90;;;;;;10553483;27;20529;-63
2024/01/10 12:47:21;;;;;;;14.90;6.97;;;11.10;99.90;;;;;;10568741;27;20118;-63
2024/01/10 12:52:24;;;;;;;17.65;6.57;;;11.10;99.90;;;;;;10556401;27;20062;-63
2024/01/10 12:57:26;;;;;;;15.85;6.45;;;11.20;99.90;;;;;;10561076;27;20051;-64
2024/01/10 13:02:28;;;;;;;17.83;6.97;;;11.30;99.90;;;;;;10558198;27;20124;-64
2024/01/10 13:07:34;;;;;;;13.77;6.87;;;11.50;99.90;;;;;;10559527;27;20055;-64
2024/01/10 13:12:36;;;;;;;11.95;6.38;;;11.70;99.90;;;;;;10557595;27;20526;-65
2024/01/10 13:17:38;;;;;;;12.97;6.47;;;11.70;99.90;;;;;;10563107;27;20056;-64
2024/01/10 13:22:45;;;;;;;9.27;5.13;;;11.80;99.90;;;;;;10552634;27;20390;-68
2024/01/10 13:27:49;;;;;;;12.10;5.75;;;11.80;99.90;;;;;;10557465;27;20059;-67
2024/01/10 13:32:52;;;;;;;17.75;5.80;;;11.90;99.90;;;;;;10561043;27;20055;-67
2024/01/10 13:37:56;;;;;;;11.17;5.60;;;11.90;99.90;;;;;;10558460;27;20066;-67
2024/01/10 13:43:02;;;;;;;9.27;5.45;;;12.00;99.90;;;;;;10561881;27;20815;-66
2024/01/10 13:48:04;;;;;;;8.23;5.25;;;12.20;99.90;;;;;;10560063;27;20051;-66
2024/01/10 13:53:08;;;;;;;11.27;5.35;;;12.30;99.90;;;;;;10565371;27;20052;-67
2024/01/10 13:58:10;;;;;;;10.68;5.07;;;12.20;99.90;;;;;;10564946;27;20055;-68
2024/01/10 14:03:12;;;;;;;9.23;4.60;;;12.30;99.90;;;;;;10564610;27;20053;-66
2024/01/10 14:08:16;;;;;;;9.18;5.40;;;12.50;99.90;;;;;;10563603;27;20131;-66
2024/01/10 14:13:18;;;;;;;8.45;5.20;;;12.60;99.90;;;;;;10559497;27;20073;-66
2024/01/10 14:18:21;;;;;;;12.95;5.28;;;12.70;99.90;;;;;;10559221;27;20043;-66
2024/01/10 14:23:25;;;;;;;8.70;4.97;;;13.00;99.90;;;;;;10561335;27;20718;-66
2024/01/10 14:28:27;;;;;;;8.50;5.07;;;13.10;99.90;;;;;;10560221;27;20063;-65
2024/01/10 14:33:30;;;;;;;10.60;5.70;;;13.20;99.90;;;;;;10558790;27;20039;-66
2024/01/10 14:38:33;;;;;;;9.65;5.18;;;13.30;99.90;;;;;;10557334;27;20450;-67
2024/01/10 14:43:37;;;;;;;9.18;4.28;;;13.50;99.90;;;;;;10556404;27;20075;-66
2024/01/10 14:48:40;;;;;;;9.65;5.13;;;13.60;99.90;;;;;;10554452;27;20063;-67
2024/01/10 14:53:43;;;;;;;9.67;5.60;;;13.80;99.90;;;;;;10558646;27;20055;-68
2024/01/10 14:58:46;;;;;;;13.27;4.93;;;13.80;99.90;;;;;;10557009;27;20487;-67
2024/01/10 15:03:49;;;;;;;7.55;4.55;;;13.90;99.90;;;;;;10559471;27;20078;-67
2024/01/10 15:08:52;;;;;;;8.10;4.90;;;14.00;99.90;;;;;;10559994;27;20051;-67
2024/01/10 15:13:56;;;;;;;17.20;8.27;;;14.10;99.90;;;;;;10558581;27;20252;-67
2024/01/10 15:18:58;;;;;;;7.88;4.13;;;14.10;99.90;;;;;;10560469;27;20058;-66
2024/01/10 15:24:01;;;;;;;8.23;5.65;;;14.20;99.90;;;;;;10559809;27;20105;-69
2024/01/10 15:29:04;;;;;;;8.00;4.40;;;14.20;99.90;;;;;;10560829;27;20179;-66
2024/01/10 15:34:06;;;;;;;9.02;4.15;;;14.20;99.90;;;;;;10559254;27;20036;-68
2024/01/10 15:39:13;;;;;;;10.50;5.10;;;14.10;99.90;;;;;;10563607;27;20062;-66
2024/01/10 15:44:15;;;;;;;11.52;6.63;;;14.10;99.90;;;;;;10557141;27;20243;-66
2024/01/10 15:49:17;;;;;;;6.30;3.42;;;14.10;99.90;;;;;;10559099;27;20062;-66
2024/01/10 15:54:23;;;;;;;7.80;3.93;;;14.00;99.90;;;;;;10551752;27;20043;-66
2024/01/10 15:59:25;;;;;;;9.10;4.55;;;14.00;99.90;;;;;;10551097;27;20124;-64
2024/01/10 16:04:27;;;;;;;7.50;4.38;;;14.00;99.90;;;;;;10558865;27;20051;-66
2024/01/10 16:09:31;;;;;;;6.87;4.30;;;13.90;99.90;;;;;;10549457;27;20058;-66
2024/01/10 16:14:33;;;;;;;6.93;3.45;;;13.80;99.90;;;;;;10554191;27;20059;-66
2024/01/10 16:19:35;;;;;;;;;;;13.80;99.90;;;;;;10555617;27;20363;-65
2024/01/10 16:24:40;;;;;;;6.85;3.63;;;13.70;99.90;;;;;;10557586;28;19927;-66
2024/01/10 16:29:42;;;;;;;5.43;3.45;;;13.60;99.90;;;;;;10549580;28;20063;-65
2024/01/10 16:34:44;;;;;;;7.90;4.50;;;13.60;99.90;;;;;;10552227;28;20627;-63
2024/01/10 16:39:50;;;;;;;6.75;3.45;;;13.50;99.90;;;;;;10556337;27;20746;-66
2024/01/10 16:44:52;;;;;;;8.43;5.53;;;13.40;99.90;;;;;;10548127;27;20048;-65
2024/01/10 16:49:54;;;;;;;12.80;3.87;;;13.40;99.90;;;;;;10552548;28;20058;-66
2024/01/10 16:54:58;;;;;;;10.07;3.90;;;13.30;99.90;;;;;;10552700;28;20466;-65
2024/01/10 17:00:00;;;;;;;6.10;4.28;;;13.20;99.90;;;;;;10555818;28;20052;-66
2024/01/10 17:05:03;;;;;;;5.72;3.22;;;13.10;99.90;;;;;;10562469;28;20130;-69
2024/01/10 17:10:07;;;;;;;;;;;13.80;99.90;;;;;;10545926;27;20460;-70
2024/01/10 17:15:10;;;;;;;7.80;3.78;;;13.80;99.90;;;;;;10550810;28;20060;-68
2024/01/10 17:20:13;;;;;;;;;;;13.80;99.90;;;;;;10550550;27;20055;-71
2024/01/10 17:25:17;;;;;;;7.57;2.83;;;13.70;99.90;;;;;;10558232;27;19928;-71
2024/01/10 17:30:20;;;;;;;9.95;5.18;;;13.70;99.70;;;;;;10555910;27;20188;-70
2024/01/10 17:35:22;;;;;;;7.90;4.15;;;13.60;99.80;;;;;;10557506;27;20047;-70
2024/01/10 17:40:25;;;;;;;8.77;5.47;;;13.30;99.90;;;;;;10559257;27;20101;-69
2024/01/10 17:45:27;;;;;;;9.10;4.45;;;13.10;99.90;;;;;;10558068;27;20189;-69
2024/01/10 17:50:30;;;;;;;7.90;5.17;;;13.10;99.90;;;;;;10556553;27;20050;-70
2024/01/10 17:55:34;;;;;;;6.22;3.65;;;12.90;99.90;;;;;;10555812;27;20039;-72
2024/01/10 18:00:36;;;;;;;7.03;4.18;;;12.80;99.90;;;;;;10556364;27;20890;-70
2024/01/10 18:05:42;;;;;;;12.00;5.18;;;12.70;99.90;;;;;;10557193;27;20074;-71
2024/01/10 18:10:48;;;;;;;8.15;3.22;;;12.60;99.90;;;;;;10557188;27;20055;-71
2024/01/10 18:15:50;;;;;;;13.93;3.80;;;12.60;99.90;;;;;;10553062;27;20047;-70
2024/01/10 18:20:52;;;;;;;11.30;4.80;;;12.60;99.90;;;;;;10553726;27;20133;-70
2024/01/10 18:25:56;;;;;;;8.55;4.95;;;12.60;99.90;;;;;;10559162;27;20183;-69
2024/01/10 18:30:57;;;;;;;10.07;3.30;;;12.00;99.90;;;;;;10565182;27;20051;-69
2024/01/10 18:35:59;;;;;;;7.75;4.35;;;11.70;99.90;;;;;;10557028;27;20074;-70
2024/01/10 18:41:04;;;;;;;11.65;5.22;;;11.50;99.90;;;;;;10564014;27;20071;-67
2024/01/10 18:46:06;;;;;;;15.73;5.72;;;11.40;99.90;;;;;;10551051;27;20047;-70
2024/01/10 18:51:08;;;;;;;8.02;4.38;;;11.40;99.90;;;;;;10562738;27;20066;-70
2024/01/10 18:56:12;;;;;;;14.48;7.65;;;11.30;99.90;;;;;;10558790;27;20106;-69
2024/01/10 19:01:14;;;;;;;17.17;8.57;;;11.10;99.90;;;;;;10565584;27;20047;-69
2024/01/10 19:06:16;;;;;;;12.67;6.80;;;11.10;99.90;;;;;;10559580;27;20049;-71
2024/01/10 19:11:20;;;;;;;11.20;6.22;;;11.10;99.90;;;;;;10572767;27;20059;-67
2024/01/10 19:16:22;;;;;;;18.10;6.70;;;10.90;99.90;;;;;;10566220;27;20050;-67
2024/01/10 19:21:24;;;;;;;15.00;6.70;;;10.80;99.90;;;;;;10560569;27;20107;-67
2024/01/10 19:26:30;;;;;;;11.87;7.40;;;10.80;99.90;;;;;;10564064;27;20406;-70
2024/01/10 19:31:32;;;;;;;13.80;6.53;;;10.70;99.90;;;;;;10562784;27;20444;-66
2024/01/10 19:36:34;;;;;;;12.80;4.83;;;11.30;99.90;;;;;;10567302;27;20047;-71
2024/01/10 19:41:41;;;;;;;14.17;5.00;;;11.50;99.90;;;;;;10556302;27;20147;-69
2024/01/10 19:46:47;;;;;;;9.90;4.85;;;11.60;99.90;;;;;;10554673;27;20051;-66
2024/01/10 19:51:49;;;;;;;8.45;4.90;;;11.60;99.90;;;;;;10559474;27;20329;-67
2024/01/10 19:56:52;;;;;;;10.53;4.43;;;11.60;99.90;;;;;;10557931;27;20071;-68
2024/01/10 20:01:55;;;;;;;12.43;6.03;;;11.60;99.90;;;;;;10557465;27;20047;-70
2024/01/10 20:06:59;;;;;;;12.33;5.80;;;11.60;99.90;;;;;;10561898;27;20047;-66
2024/01/10 20:12:03;;;;;;;8.30;4.75;;;11.50;99.90;;;;;;10551607;27;20060;-66
2024/01/10 20:17:12;;;;;;;10.38;4.55;;;11.50;99.90;;;;;;10560691;28;20051;-68
2024/01/10 20:22:14;;;;;;;8.35;5.07;;;11.50;99.90;;;;;;10564364;28;20566;-69
2024/01/10 20:27:18;;;;;;;14.83;4.50;;;11.50;99.90;;;;;;10558186;28;20055;-69
2024/01/10 20:32:20;;;;;;;9.82;4.75;;;11.50;99.90;;;;;;10560214;28;20079;-69
2024/01/10 20:37:22;;;;;;;9.43;4.10;;;11.50;99.90;;;;;;10562630;28;20055;-67
2024/01/10 20:42:30;;;;;;;8.38;4.43;;;11.50;99.90;;;;;;10549417;28;20776;-69
2024/01/10 20:47:32;;;;;;;6.75;4.53;;;11.40;99.90;;;;;;10563646;28;20158;-69
2024/01/10 20:52:34;;;;;;;7.22;4.20;;;11.40;99.90;;;;;;10553288;27;20054;-69
2024/01/10 20:57:38;;;;;;;10.55;3.33;;;11.40;99.90;;;;;;10562030;27;20050;-70
2024/01/10 21:02:40;;;;;;;8.38;4.90;;;11.50;99.90;;;;;;10556724;27;20711;-72
2024/01/10 21:07:42;;;;;;;8.68;4.85;;;11.50;99.90;;;;;;10560983;27;20057;-71
2024/01/10 21:12:46;;;;;;;6.03;4.30;;;11.50;99.90;;;;;;10570077;27;20070;-69
2024/01/10 21:17:48;;;;;;;9.30;4.80;;;11.40;99.90;;;;;;10564538;27;20117;-69
2024/01/10 21:22:51;;;;;;;7.43;3.88;;;11.50;99.90;;;;;;10564845;27;20055;-71
2024/01/10 21:27:55;;;;;;;9.88;5.95;;;11.40;99.90;;;;;;10561191;27;20055;-70
2024/01/10 21:32:57;;;;;;;7.25;3.90;;;11.40;99.90;;;;;;10561122;27;20044;-69
2024/01/10 21:37:59;;;;;;;12.82;7.40;;;11.30;99.90;;;;;;10557053;27;20051;-70
2024/01/10 21:43:04;;;;;;;10.55;6.35;;;11.30;99.90;;;;;;10558943;27;20047;-71
2024/01/10 21:48:07;;;;;;;12.90;4.30;;;11.40;99.90;;;;;;10560908;27;20039;-70
2024/01/10 21:53:09;;;;;;;10.32;5.85;;;11.40;99.90;;;;;;10563596;27;22498;-70
2024/01/10 21:58:15;;;;;;;9.93;5.07;;;11.30;99.90;;;;;;10564091;27;20885;-70
2024/01/10 22:03:17;;;;;;;13.80;5.93;;;11.30;99.90;;;;;;10568769;27;20058;-69
2024/01/10 22:08:19;;;;;;;9.68;5.28;;;11.20;99.90;;;;;;10565728;27;20605;-68
2024/01/10 22:13:22;;;;;;;10.93;5.90;;;11.20;99.90;;;;;;10563041;27;20610;-68
2024/01/10 22:18:24;;;;;;;14.25;7.18;;;11.20;99.90;;;;;;10564369;27;20185;-69
2024/01/10 22:23:26;;;;;;;17.33;6.82;;;11.20;99.90;;;;;;10569033;27;20051;-70
2024/01/10 22:28:29;;;;;;;13.37;6.47;;;11.20;99.90;;;;;;10562384;27;20513;-70
2024/01/10 22:33:32;;;;;;;12.93;6.93;;;11.20;99.90;;;;;;10558178;27;20359;-69
2024/01/10 22:38:34;;;;;;;10.53;4.77;;;11.20;99.90;;;;;;10564210;27;20054;-68
2024/01/10 22:43:38;;;;;;;11.17;5.53;;;11.20;99.90;;;;;;10551536;27;20418;-71
2024/01/10 22:48:43;;;;;;;13.13;5.35;;;11.10;99.90;;;;;;10545721;27;21080;-70
2024/01/10 22:53:45;;;;;;;12.57;5.97;;;11.10;99.90;;;;;;10572358;27;20051;-70
2024/01/10 22:58:49;;;;;;;13.52;6.32;;;11.10;99.90;;;;;;10568396;27;20039;-69
2024/01/10 23:03:51;;;;;;;10.63;5.63;;;11.10;99.90;;;;;;10564228;27;20040;-69
2024/01/10 23:08:53;;;;;;;9.55;5.50;;;11.10;99.90;;;;;;10569884;27;20040;-69
2024/01/10 23:13:57;;;;;;;11.60;5.43;;;11.10;99.90;;;;;;10560349;27;20755;-70
2024/01/10 23:18:59;;;;;;;12.35;5.72;;;11.10;99.90;;;;;;10564977;27;20046;-69
2024/01/10 23:24:02;;;;;;;8.23;4.10;;;11.00;99.90;;;;;;10575223;27;20043;-70
2024/01/10 23:29:06;;;;;;;9.05;4.75;;;11.00;99.90;;;;;;10565474;27;20048;-70
2024/01/10 23:34:08;;;;;;;10.70;5.32;;;11.00;99.90;;;;;;10563358;27;20067;-70
2024/01/10 23:39:10;;;;;;;9.83;5.73;;;10.90;99.90;;;;;;10576163;27;22557;-71
2024/01/10 23:44:15;;;;;;;11.10;4.87;;;10.90;99.90;;;;;;10566332;27;20173;-69
2024/01/10 23:49:17;;;;;;;10.23;5.60;;;11.00;99.90;;;;;;10569074;27;20636;-69
2024/01/10 23:54:19;;;;;;;14.57;5.90;;;11.00;99.90;;;;;;10565444;27;20047;-70
2024/01/10 23:59:22;;;;;;;11.23;5.47;;;11.00;99.90;;;;;;10555982;27;20055;-70
